createdAt,value
2023-05-02T00:00:54.818Z,101205.77
2023-05-02T00:01:56.367Z,101203.69
2023-05-02T00:02:58.360Z,101204.41
2023-05-02T00:04:00.527Z,101201.28
2023-05-02T00:05:02.119Z,101203.55
2023-05-02T00:06:03.647Z,101198.23
2023-05-02T00:07:05.214Z,101201.80
2023-05-02T00:08:06.722Z,101197.63
2023-05-02T00:09:08.267Z,101198.37
2023-05-02T00:10:09.674Z,101199.13
2023-05-02T00:11:11.092Z,101194.39
2023-05-02T00:12:12.443Z,101191.63
2023-05-02T00:13:13.909Z,101193.66
2023-05-02T00:14:15.392Z,101192.33
2023-05-02T00:15:16.784Z,101190.35
2023-05-02T00:16:18.268Z,101190.14
2023-05-02T00:17:20.062Z,101188.25
2023-05-02T00:18:23.486Z,101188.90
2023-05-02T00:19:24.971Z,101190.31
2023-05-02T00:20:26.376Z,101188.90
2023-05-02T00:21:28.620Z,101187.95
2023-05-02T00:22:29.991Z,101186.45
2023-05-02T00:23:31.438Z,101187.05
2023-05-02T00:24:32.865Z,101184.35
2023-05-02T00:25:34.312Z,101181.55
2023-05-02T00:26:35.698Z,101181.25
2023-05-02T00:27:37.147Z,101180.42
2023-05-02T00:28:39.631Z,101179.41
2023-05-02T00:29:41.344Z,101178.31
2023-05-02T00:30:46.570Z,101177.78
2023-05-02T00:31:48.262Z,101179.31
2023-05-02T00:32:49.705Z,101177.54
2023-05-02T00:33:51.104Z,101178.14
2023-05-02T00:34:52.919Z,101177.20
2023-05-02T00:35:54.464Z,101173.19
2023-05-02T00:36:55.924Z,101171.50
2023-05-02T00:37:58.950Z,101172.21
2023-05-02T00:39:00.406Z,101169.61
2023-05-02T00:40:02.913Z,101168.84
2023-05-02T00:41:05.509Z,101167.19
2023-05-02T00:42:07.013Z,101170.40
2023-05-02T00:43:08.439Z,101165.45
2023-05-02T00:44:09.844Z,101164.66
2023-05-02T00:45:11.663Z,101163.01
2023-05-02T00:46:14.639Z,101165.15
2023-05-02T00:47:16.104Z,101164.33
2023-05-02T00:48:19.874Z,101162.42
2023-05-02T00:49:21.847Z,101159.13
2023-05-02T00:50:26.556Z,101156.08
2023-05-02T00:51:28.590Z,101155.14
2023-05-02T00:52:30.589Z,101155.21
2023-05-02T00:53:32.131Z,101153.86
2023-05-02T00:54:33.677Z,101151.98
2023-05-02T00:55:36.184Z,101152.37
2023-05-02T00:56:37.617Z,101149.23
2023-05-02T00:57:39.092Z,101152.80
2023-05-02T00:58:40.838Z,101153.60
2023-05-02T00:59:43.618Z,101153.82
2023-05-02T01:00:48.192Z,101150.64
2023-05-02T01:02:00.569Z,101150.47
2023-05-02T01:03:15.123Z,101146.96
2023-05-02T01:04:19.529Z,101147.94
2023-05-02T01:05:27.549Z,101147.62
2023-05-02T01:06:41.221Z,101144.83
2023-05-02T01:08:14.432Z,101149.15
2023-05-02T01:09:26.056Z,101146.72
2023-05-02T01:10:55.740Z,101145.70
2023-05-02T01:12:24.408Z,101146.14
2023-05-02T01:13:31.144Z,101142.01
2023-05-02T01:14:41.121Z,101147.18
2023-05-02T01:15:44.573Z,101145.83
2023-05-02T01:16:47.923Z,101143.85
2023-05-02T01:17:51.769Z,101138.53
2023-05-02T01:18:54.299Z,101142.86
2023-05-02T01:19:59.378Z,101140.05
2023-05-02T01:21:05.653Z,101142.27
2023-05-02T01:22:10.395Z,101142.80
2023-05-02T01:23:25.405Z,101141.43
2023-05-02T01:24:32.018Z,101142.46
2023-05-02T01:26:01.650Z,101141.79
2023-05-02T01:27:22.331Z,101143.20
2023-05-02T01:28:42.171Z,101139.59
2023-05-02T01:29:45.451Z,101144.23
2023-05-02T01:31:36.888Z,101142.59
2023-05-02T01:32:40.983Z,101144.13
2023-05-02T01:33:45.421Z,101143.68
2023-05-02T01:34:48.289Z,101142.98
2023-05-02T01:35:51.882Z,101144.92
2023-05-02T01:36:56.490Z,101143.23
2023-05-02T01:38:00.584Z,101139.10
2023-05-02T01:39:03.749Z,101137.96
2023-05-02T01:40:08.771Z,101138.84
2023-05-02T01:41:12.661Z,101134.54
2023-05-02T01:42:14.978Z,101130.00
2023-05-02T01:43:19.863Z,101132.40
2023-05-02T01:44:22.892Z,101132.85
2023-05-02T01:45:25.283Z,101132.15
2023-05-02T01:46:30.758Z,101126.83
2023-05-02T01:47:36.150Z,101129.88
2023-05-02T01:48:40.146Z,101129.48
2023-05-02T01:49:43.552Z,101128.03
2023-05-02T01:50:47.131Z,101122.59
2023-05-02T01:51:50.058Z,101125.60
2023-05-02T01:52:53.954Z,101123.46
2023-05-02T01:53:56.700Z,101124.13
2023-05-02T01:55:00.223Z,101121.61
2023-05-02T01:56:03.080Z,101120.27
2023-05-02T01:57:06.824Z,101115.52
2023-05-02T01:58:10.246Z,101117.47
2023-05-02T01:59:16.358Z,101118.75
2023-05-02T02:00:20.077Z,101117.10
2023-05-02T02:01:26.742Z,101117.48
2023-05-02T02:02:29.844Z,101117.52
2023-05-02T02:03:31.718Z,101114.04
2023-05-02T02:04:37.037Z,101115.09
2023-05-02T02:05:40.928Z,101115.63
2023-05-02T02:06:47.945Z,101112.95
2023-05-02T02:07:49.640Z,101112.86
2023-05-02T02:08:53.229Z,101114.64
2023-05-02T02:09:54.750Z,101112.20
2023-05-02T02:11:03.787Z,101111.95
2023-05-02T02:12:11.156Z,101112.15
2023-05-02T02:13:17.625Z,101106.52
2023-05-02T02:14:25.930Z,101108.24
2023-05-02T02:15:28.468Z,101106.38
2023-05-02T02:16:32.444Z,101098.33
2023-05-02T02:17:40.857Z,101097.30
2023-05-02T02:18:44.814Z,101095.04
2023-05-02T02:19:46.372Z,101096.04
2023-05-02T02:20:50.002Z,101095.13
2023-05-02T02:21:53.381Z,101095.86
2023-05-02T02:22:57.022Z,101094.84
2023-05-02T02:24:02.267Z,101095.28
2023-05-02T02:25:07.343Z,101099.45
2023-05-02T02:26:09.303Z,101100.16
2023-05-02T02:27:10.715Z,101101.31
2023-05-02T02:28:12.222Z,101101.61
2023-05-02T02:29:13.640Z,101100.96
2023-05-02T02:30:16.048Z,101096.24
2023-05-02T02:31:17.562Z,101092.20
2023-05-02T02:32:19.030Z,101092.80
2023-05-02T02:33:20.614Z,101090.30
2023-05-02T02:34:22.064Z,101088.25
2023-05-02T02:35:29.459Z,101085.36
2023-05-02T02:36:42.605Z,101087.09
2023-05-02T02:37:51.441Z,101091.51
2023-05-02T02:39:24.301Z,101091.23
2023-05-02T02:40:49.042Z,101095.64
2023-05-02T02:42:08.848Z,101090.63
2023-05-02T02:43:25.488Z,101090.43
2023-05-02T02:44:55.933Z,101088.45
2023-05-02T02:46:34.683Z,101087.27
2023-05-02T02:47:43.931Z,101083.95
2023-05-02T02:49:18.020Z,101085.26
2023-05-02T02:50:41.629Z,101084.27
2023-05-02T02:52:18.267Z,101082.55
2023-05-02T02:53:26.929Z,101080.49
2023-05-02T02:54:46.562Z,101081.15
2023-05-02T02:56:02.292Z,101082.59
2023-05-02T02:57:38.201Z,101082.91
2023-05-02T02:58:53.646Z,101084.49
2023-05-02T03:00:06.505Z,101084.08
2023-05-02T03:01:19.758Z,101085.60
2023-05-02T03:02:26.599Z,101088.00
2023-05-02T03:03:31.872Z,101087.50
2023-05-02T03:04:40.361Z,101085.60
2023-05-02T03:05:43.400Z,101084.74
2023-05-02T03:06:45.057Z,101081.69
2023-05-02T03:07:46.954Z,101079.73
2023-05-02T03:08:48.696Z,101080.77
2023-05-02T03:09:51.717Z,101080.92
2023-05-02T03:10:55.512Z,101078.33
2023-05-02T03:11:56.941Z,101079.11
2023-05-02T03:12:59.083Z,101074.70
2023-05-02T03:14:00.704Z,101077.91
2023-05-02T03:15:50.118Z,101071.44
2023-05-02T03:16:53.133Z,101073.95
2023-05-02T03:17:54.667Z,101071.93
2023-05-02T03:18:56.431Z,101074.99
2023-05-02T03:19:58.321Z,101073.92
2023-05-02T03:21:01.312Z,101071.98
2023-05-02T03:22:04.223Z,101072.48
2023-05-02T03:23:06.052Z,101070.21
2023-05-02T03:24:07.468Z,101073.47
2023-05-02T03:25:09.358Z,101072.45
2023-05-02T03:26:13.458Z,101073.14
2023-05-02T03:27:15.191Z,101075.33
2023-05-02T03:28:16.864Z,101077.83
2023-05-02T03:29:20.207Z,101081.46
2023-05-02T03:30:22.850Z,101080.03
2023-05-02T03:31:26.643Z,101084.03
2023-05-02T03:32:28.352Z,101090.35
2023-05-02T03:33:29.847Z,101087.17
2023-05-02T03:34:31.348Z,101086.02
2023-05-02T03:35:32.860Z,101084.55
2023-05-02T03:36:34.282Z,101083.60
2023-05-02T03:37:36.307Z,101083.50
2023-05-02T03:38:37.717Z,101085.11
2023-05-02T03:39:39.528Z,101086.30
2023-05-02T03:40:40.921Z,101081.88
2023-05-02T03:41:43.561Z,101084.52
2023-05-02T03:42:46.007Z,101080.56
2023-05-02T03:43:54.177Z,101081.59
2023-05-02T03:44:56.283Z,101082.75
2023-05-02T03:46:04.805Z,101082.71
2023-05-02T03:47:06.802Z,101084.14
2023-05-02T03:48:09.826Z,101080.28
2023-05-02T03:49:12.957Z,101080.73
2023-05-02T03:50:15.588Z,101077.68
2023-05-02T03:51:17.811Z,101078.26
2023-05-02T03:52:19.265Z,101080.89
2023-05-02T03:53:21.063Z,101075.36
2023-05-02T03:54:25.389Z,101078.91
2023-05-02T03:55:27.722Z,101078.63
2023-05-02T03:56:29.915Z,101082.66
2023-05-02T03:57:37.070Z,101084.73
2023-05-02T03:58:39.825Z,101082.79
2023-05-02T03:59:42.401Z,101086.17
2023-05-02T04:00:47.347Z,101085.77
2023-05-02T04:01:50.582Z,101087.67
2023-05-02T04:02:53.235Z,101086.58
2023-05-02T04:03:57.554Z,101086.58
2023-05-02T04:05:01.125Z,101086.83
2023-05-02T04:06:03.105Z,101085.55
2023-05-02T04:07:07.244Z,101085.22
2023-05-02T04:08:09.902Z,101085.70
2023-05-02T04:09:12.364Z,101087.48
2023-05-02T04:10:19.957Z,101088.98
2023-05-02T04:11:30.750Z,101089.59
2023-05-02T04:12:32.272Z,101088.65
2023-05-02T04:13:33.703Z,101088.27
2023-05-02T04:14:35.690Z,101085.34
2023-05-02T04:15:37.638Z,101086.02
2023-05-02T04:16:39.842Z,101087.48
2023-05-02T04:17:41.691Z,101085.95
2023-05-02T04:18:44.131Z,101086.70
2023-05-02T04:19:46.318Z,101085.62
2023-05-02T04:20:49.752Z,101089.09
2023-05-02T04:21:52.492Z,101092.73
2023-05-02T04:22:54.764Z,101090.19
2023-05-02T04:23:56.191Z,101096.51
2023-05-02T04:24:57.876Z,101093.11
2023-05-02T04:25:59.996Z,101095.99
2023-05-02T04:27:17.586Z,101096.07
2023-05-02T04:28:21.259Z,101094.64
2023-05-02T04:29:23.148Z,101097.88
2023-05-02T04:30:25.089Z,101096.15
2023-05-02T04:31:35.429Z,101101.40
2023-05-02T04:32:37.376Z,101099.73
2023-05-02T04:33:39.283Z,101101.23
2023-05-02T04:34:41.270Z,101100.56
2023-05-02T04:35:43.793Z,101104.27
2023-05-02T04:36:47.678Z,101103.54
2023-05-02T04:37:54.089Z,101103.61
2023-05-02T04:38:56.076Z,101103.20
2023-05-02T04:39:57.707Z,101106.65
2023-05-02T04:41:09.364Z,101104.60
2023-05-02T04:42:16.088Z,101101.19
2023-05-02T04:43:25.489Z,101104.21
2023-05-02T04:44:31.704Z,101108.73
2023-05-02T04:45:36.560Z,101106.63
2023-05-02T04:46:39.707Z,101109.28
2023-05-02T04:47:41.273Z,101104.60
2023-05-02T04:48:42.827Z,101102.54
2023-05-02T04:49:44.239Z,101104.52
2023-05-02T04:50:46.412Z,101103.11
2023-05-02T04:51:48.120Z,101100.98
2023-05-02T04:52:49.564Z,101101.14
2023-05-02T04:53:51.264Z,101102.21
2023-05-02T04:54:52.759Z,101101.79
2023-05-02T04:55:54.160Z,101103.42
2023-05-02T04:56:56.136Z,101104.95
2023-05-02T04:57:58.748Z,101104.02
2023-05-02T04:59:00.520Z,101100.70
2023-05-02T05:00:02.890Z,101100.85
2023-05-02T05:01:05.613Z,101097.08
2023-05-02T05:02:07.666Z,101096.41
2023-05-02T05:03:09.299Z,101096.42
2023-05-02T05:04:11.132Z,101094.30
2023-05-02T05:05:12.785Z,101093.64
2023-05-02T05:06:14.972Z,101094.53
2023-05-02T05:07:16.869Z,101097.26
2023-05-02T05:08:20.150Z,101095.31
2023-05-02T05:09:21.843Z,101094.84
2023-05-02T05:10:23.390Z,101092.45
2023-05-02T05:11:25.642Z,101091.87
2023-05-02T05:12:27.720Z,101092.79
2023-05-02T05:13:29.162Z,101095.29
2023-05-02T05:14:31.182Z,101097.84
2023-05-02T05:15:32.744Z,101100.26
2023-05-02T05:16:36.800Z,101098.36
2023-05-02T05:17:38.473Z,101100.41
2023-05-02T05:18:39.964Z,101096.77
2023-05-02T05:19:42.256Z,101095.80
2023-05-02T05:20:43.693Z,101096.43
2023-05-02T05:21:45.838Z,101098.67
2023-05-02T05:22:50.583Z,101092.33
2023-05-02T05:23:53.281Z,101095.39
2023-05-02T05:24:59.049Z,101094.83
2023-05-02T05:26:10.949Z,101096.98
2023-05-02T05:27:12.959Z,101099.17
2023-05-02T05:28:14.353Z,101099.55
2023-05-02T05:29:17.501Z,101099.17
2023-05-02T05:30:19.195Z,101099.11
2023-05-02T05:31:22.524Z,101097.75
2023-05-02T05:32:27.252Z,101100.29
2023-05-02T05:33:28.765Z,101104.23
2023-05-02T05:34:31.421Z,101102.85
2023-05-02T05:35:34.372Z,101101.69
2023-05-02T05:36:37.815Z,101105.10
2023-05-02T05:37:39.387Z,101106.94
2023-05-02T05:38:43.036Z,101103.94
2023-05-02T05:39:45.324Z,101109.70
2023-05-02T05:40:49.574Z,101111.48
2023-05-02T05:41:51.112Z,101111.86
2023-05-02T05:42:52.721Z,101101.78
2023-05-02T05:44:01.528Z,101104.64
2023-05-02T05:45:04.334Z,101108.34
2023-05-02T05:46:05.885Z,101109.80
2023-05-02T05:47:08.440Z,101113.66
2023-05-02T05:48:10.083Z,101112.79
2023-05-02T05:49:18.186Z,101113.60
2023-05-02T05:50:20.096Z,101114.42
2023-05-02T05:51:21.775Z,101115.54
2023-05-02T05:52:24.706Z,101120.41
2023-05-02T05:53:28.042Z,101123.77
2023-05-02T05:54:30.248Z,101124.80
2023-05-02T05:55:32.629Z,101125.60
2023-05-02T05:56:35.046Z,101127.91
2023-05-02T05:57:48.760Z,101128.06
2023-05-02T05:58:50.367Z,101128.99
2023-05-02T05:59:51.916Z,101125.59
2023-05-02T06:00:54.276Z,101130.63
2023-05-02T06:01:55.978Z,101131.02
2023-05-02T06:02:58.040Z,101134.63
2023-05-02T06:04:06.763Z,101132.66
2023-05-02T06:05:11.285Z,101134.30
2023-05-02T06:06:13.079Z,101134.92
2023-05-02T06:07:15.063Z,101135.27
2023-05-02T06:08:16.528Z,101132.92
2023-05-02T06:09:17.987Z,101136.16
2023-05-02T06:10:19.437Z,101136.33
2023-05-02T06:11:21.369Z,101136.12
2023-05-02T06:12:22.858Z,101136.07
2023-05-02T06:13:25.250Z,101135.08
2023-05-02T06:14:26.724Z,101136.48
2023-05-02T06:15:28.917Z,101134.38
2023-05-02T06:16:30.467Z,101139.83
2023-05-02T06:17:32.038Z,101137.14
2023-05-02T06:18:33.734Z,101140.54
2023-05-02T06:19:35.176Z,101142.84
2023-05-02T06:20:36.723Z,101139.84
2023-05-02T06:21:38.435Z,101143.77
2023-05-02T06:22:40.028Z,101144.22
2023-05-02T06:23:41.488Z,101143.20
2023-05-02T06:24:42.917Z,101146.02
2023-05-02T06:25:44.312Z,101147.58
2023-05-02T06:26:45.763Z,101145.35
2023-05-02T06:27:47.492Z,101148.92
2023-05-02T06:28:49.012Z,101147.63
2023-05-02T06:29:51.729Z,101149.84
2023-05-02T06:31:03.352Z,101148.18
2023-05-02T06:32:05.785Z,101153.10
2023-05-02T06:33:07.344Z,101150.59
2023-05-02T06:34:08.864Z,101156.07
2023-05-02T06:35:11.571Z,101155.45
2023-05-02T06:36:13.143Z,101159.30
2023-05-02T06:37:14.621Z,101159.95
2023-05-02T06:38:17.838Z,101165.60
2023-05-02T06:39:19.473Z,101164.91
2023-05-02T06:40:20.898Z,101167.13
2023-05-02T06:41:22.853Z,101165.48
2023-05-02T06:42:24.387Z,101166.59
2023-05-02T06:43:25.960Z,101165.81
2023-05-02T06:44:27.457Z,101170.08
2023-05-02T06:45:28.821Z,101169.98
2023-05-02T06:46:30.976Z,101166.98
2023-05-02T06:47:32.490Z,101171.52
2023-05-02T06:48:36.767Z,101170.70
2023-05-02T06:49:38.289Z,101171.27
2023-05-02T06:50:39.958Z,101172.67
2023-05-02T06:51:41.914Z,101173.34
2023-05-02T06:52:43.466Z,101175.27
2023-05-02T06:53:44.979Z,101175.66
2023-05-02T06:54:46.650Z,101173.60
2023-05-02T06:55:48.516Z,101175.50
2023-05-02T06:56:50.264Z,101171.80
2023-05-02T06:57:52.564Z,101174.89
2023-05-02T06:58:54.278Z,101175.36
2023-05-02T06:59:56.337Z,101178.87
2023-05-02T07:00:57.989Z,101180.05
2023-05-02T07:01:59.411Z,101179.44
2023-05-02T07:03:00.809Z,101184.10
2023-05-02T07:04:05.478Z,101180.75
2023-05-02T07:05:07.298Z,101183.42
2023-05-02T07:06:09.054Z,101184.04
2023-05-02T07:07:10.463Z,101183.31
2023-05-02T07:08:11.866Z,101190.70
2023-05-02T07:09:13.444Z,101189.77
2023-05-02T07:10:15.081Z,101194.42
2023-05-02T07:11:16.513Z,101198.34
2023-05-02T07:12:17.880Z,101195.41
2023-05-02T07:13:19.260Z,101197.52
2023-05-02T07:14:21.106Z,101198.52
2023-05-02T07:15:22.754Z,101198.95
2023-05-02T07:16:24.160Z,101202.41
2023-05-02T07:17:26.647Z,101201.45
2023-05-02T07:18:28.174Z,101202.06
2023-05-02T07:19:32.848Z,101205.25
2023-05-02T07:20:34.620Z,101205.27
2023-05-02T07:21:35.995Z,101205.77
2023-05-02T07:22:37.390Z,101207.55
2023-05-02T07:23:38.765Z,101209.83
2023-05-02T07:24:41.233Z,101208.54
2023-05-02T07:25:42.681Z,101211.23
2023-05-02T07:26:44.164Z,101210.27
2023-05-02T07:27:45.738Z,101209.21
2023-05-02T07:28:47.259Z,101212.55
2023-05-02T07:29:48.801Z,101212.17
2023-05-02T07:30:50.262Z,101210.09
2023-05-02T07:31:51.845Z,101214.55
2023-05-02T07:32:53.347Z,101212.91
2023-05-02T07:33:54.917Z,101218.15
2023-05-02T07:34:56.562Z,101215.19
2023-05-02T07:35:58.721Z,101216.77
2023-05-02T07:37:00.398Z,101220.80
2023-05-02T07:38:01.894Z,101221.80
2023-05-02T07:39:03.298Z,101221.56
2023-05-02T07:40:06.726Z,101221.86
2023-05-02T07:41:08.118Z,101223.70
2023-05-02T07:42:09.544Z,101225.17
2023-05-02T07:43:11.414Z,101225.82
2023-05-02T07:44:12.871Z,101226.36
2023-05-02T07:45:14.438Z,101224.48
2023-05-02T07:46:16.008Z,101226.55
2023-05-02T07:47:17.444Z,101229.77
2023-05-02T07:48:19.588Z,101231.92
2023-05-02T07:49:21.082Z,101233.04
2023-05-02T07:50:23.165Z,101232.20
2023-05-02T07:51:26.252Z,101235.51
2023-05-02T07:52:27.643Z,101234.17
2023-05-02T07:53:29.033Z,101234.31
2023-05-02T07:54:30.563Z,101231.34
2023-05-02T07:55:32.756Z,101236.41
2023-05-02T07:56:35.109Z,101239.21
2023-05-02T07:57:36.518Z,101240.84
2023-05-02T07:58:37.962Z,101240.86
2023-05-02T07:59:39.408Z,101247.55
2023-05-02T08:00:40.926Z,101240.88
2023-05-02T08:01:42.528Z,101246.51
2023-05-02T08:02:45.800Z,101243.85
2023-05-02T08:03:49.226Z,101250.95
2023-05-02T08:04:51.096Z,101247.30
2023-05-02T08:05:53.082Z,101246.65
2023-05-02T08:06:54.774Z,101245.73
2023-05-02T08:07:56.255Z,101247.78
2023-05-02T08:08:57.719Z,101246.10
2023-05-02T08:09:59.559Z,101246.48
2023-05-02T08:11:01.240Z,101247.83
2023-05-02T08:12:02.734Z,101248.90
2023-05-02T08:13:04.418Z,101249.42
2023-05-02T08:14:05.976Z,101248.60
2023-05-02T08:15:09.872Z,101248.21
2023-05-02T08:16:12.001Z,101249.66
2023-05-02T08:17:13.469Z,101249.06
2023-05-02T08:18:15.233Z,101252.36
2023-05-02T08:19:16.690Z,101249.46
2023-05-02T08:20:18.445Z,101243.81
2023-05-02T08:21:19.903Z,101244.05
2023-05-02T08:22:21.270Z,101246.18
2023-05-02T08:23:22.741Z,101245.00
2023-05-02T08:24:24.296Z,101243.79
2023-05-02T08:25:25.723Z,101243.95
2023-05-02T08:26:27.555Z,101244.75
2023-05-02T08:27:29.070Z,101244.14
2023-05-02T08:28:30.713Z,101243.87
2023-05-02T08:29:32.577Z,101248.05
2023-05-02T08:30:34.001Z,101247.28
2023-05-02T08:31:35.833Z,101237.91
2023-05-02T08:32:37.419Z,101244.55
2023-05-02T08:33:38.856Z,101246.50
2023-05-02T08:34:40.282Z,101245.96
2023-05-02T08:35:41.817Z,101248.62
2023-05-02T08:36:43.492Z,101246.66
2023-05-02T08:37:44.876Z,101250.34
2023-05-02T08:38:46.547Z,101250.21
2023-05-02T08:39:47.984Z,101253.79
2023-05-02T08:40:49.371Z,101252.67
2023-05-02T08:41:50.966Z,101257.35
2023-05-02T08:42:54.138Z,101257.05
2023-05-02T08:43:56.180Z,101265.58
2023-05-02T08:44:57.603Z,101258.73
2023-05-02T08:45:59.365Z,101270.36
2023-05-02T08:47:02.190Z,101265.83
2023-05-02T08:48:09.760Z,101263.64
2023-05-02T08:49:13.064Z,101264.68
2023-05-02T08:50:17.267Z,101267.27
2023-05-02T08:52:22.546Z,101277.72
2023-05-02T08:53:24.623Z,101273.99
2023-05-02T08:54:26.595Z,101276.90
2023-05-02T08:55:28.192Z,101278.94
2023-05-02T08:56:29.677Z,101274.42
2023-05-02T08:57:31.575Z,101278.63
2023-05-02T08:58:33.112Z,101278.52
2023-05-02T08:59:34.849Z,101280.20
2023-05-02T09:00:40.650Z,101280.88
2023-05-02T09:01:45.672Z,101284.06
2023-05-02T09:02:56.327Z,101283.05
2023-05-02T09:03:58.599Z,101281.09
2023-05-02T09:05:07.148Z,101281.27
2023-05-02T09:06:16.455Z,101285.39
2023-05-02T09:07:17.910Z,101283.73
2023-05-02T09:08:23.821Z,101284.84
2023-05-02T09:09:26.190Z,101275.78
2023-05-02T09:10:28.492Z,101284.21
2023-05-02T09:11:29.982Z,101287.48
2023-05-02T09:12:31.554Z,101276.87
2023-05-02T09:13:36.380Z,101296.94
2023-05-02T09:14:37.769Z,101299.09
2023-05-02T09:15:39.419Z,101296.29
2023-05-02T09:16:40.871Z,101294.63
2023-05-02T09:17:43.734Z,101294.10
2023-05-02T09:18:47.651Z,101295.91
2023-05-02T09:20:00.011Z,101306.85
2023-05-02T09:21:05.917Z,101311.01
2023-05-02T09:22:07.318Z,101309.41
2023-05-02T09:23:08.712Z,101305.35
2023-05-02T09:24:18.692Z,101309.77
2023-05-02T09:25:20.775Z,101318.70
2023-05-02T09:26:31.748Z,101322.16
2023-05-02T09:27:52.824Z,101316.10
2023-05-02T09:28:55.132Z,101317.06
2023-05-02T09:30:21.631Z,101334.96
2023-05-02T09:31:53.929Z,101327.40
2023-05-02T09:32:55.224Z,101328.81
2023-05-02T09:33:58.234Z,101329.73
2023-05-02T09:35:06.364Z,101333.91
2023-05-02T09:36:11.400Z,101342.23
2023-05-02T09:37:36.397Z,101343.05
2023-05-02T09:38:38.232Z,101339.83
2023-05-02T09:39:39.738Z,101342.79
2023-05-02T09:40:53.651Z,101341.39
2023-05-02T09:41:56.254Z,101338.30
2023-05-02T09:42:57.882Z,101341.11
2023-05-02T09:43:59.345Z,101339.94
2023-05-02T09:45:01.205Z,101341.34
2023-05-02T09:46:08.221Z,101338.88
2023-05-02T09:47:09.757Z,101341.27
2023-05-02T09:48:14.455Z,101344.41
2023-05-02T09:49:19.485Z,101346.55
2023-05-02T09:50:33.056Z,101346.03
2023-05-02T09:51:35.738Z,101348.59
2023-05-02T09:52:37.167Z,101353.31
2023-05-02T09:53:43.331Z,101357.55
2023-05-02T09:54:49.903Z,101353.90
2023-05-02T09:56:01.988Z,101358.69
2023-05-02T09:57:04.159Z,101364.94
2023-05-02T09:58:05.984Z,101367.70
2023-05-02T09:59:16.586Z,101369.79
2023-05-02T10:00:19.338Z,101371.77
2023-05-02T10:01:20.922Z,101374.19
2023-05-02T10:02:24.127Z,101378.00
2023-05-02T10:03:27.126Z,101379.06
2023-05-02T10:04:31.328Z,101377.10
2023-05-02T10:05:38.272Z,101382.54
2023-05-02T10:06:39.996Z,101381.30
2023-05-02T10:07:42.281Z,101383.15
2023-05-02T10:08:46.605Z,101383.91
2023-05-02T10:09:52.543Z,101388.61
2023-05-02T10:10:56.488Z,101392.77
2023-05-02T10:12:04.308Z,101394.23
2023-05-02T10:13:08.155Z,101397.94
2023-05-02T10:14:10.394Z,101402.34
2023-05-02T10:15:16.378Z,101395.83
2023-05-02T10:16:27.835Z,101395.05
2023-05-02T10:17:42.666Z,101397.38
2023-05-02T10:18:50.111Z,101395.45
2023-05-02T10:20:03.864Z,101402.45
2023-05-02T10:21:09.834Z,101402.31
2023-05-02T10:22:12.649Z,101399.20
2023-05-02T10:23:16.229Z,101406.77
2023-05-02T10:24:18.428Z,101409.73
2023-05-02T10:25:20.373Z,101414.96
2023-05-02T10:26:22.930Z,101413.08
2023-05-02T10:27:25.023Z,101419.42
2023-05-02T10:28:27.704Z,101416.70
2023-05-02T10:29:30.909Z,101418.55
2023-05-02T10:30:34.672Z,101423.36
2023-05-02T10:31:39.145Z,101417.95
2023-05-02T10:32:41.228Z,101415.18
2023-05-02T10:33:43.883Z,101413.79
2023-05-02T11:33:05.910Z,101521.23
2023-05-02T11:34:09.328Z,101531.11
2023-05-02T11:35:16.923Z,101533.88
2023-05-02T11:36:29.730Z,101543.78
2023-05-02T11:37:33.219Z,101545.16
2023-05-02T11:38:38.354Z,101541.90
2023-05-02T11:39:41.929Z,101551.35
2023-05-02T11:40:59.612Z,101544.58
2023-05-02T11:42:02.461Z,101548.67
2023-05-02T11:43:19.514Z,101555.57
2023-05-02T11:44:22.649Z,101563.77
2023-05-02T11:45:45.489Z,101567.23
2023-05-02T11:46:49.071Z,101568.96
2023-05-02T11:47:52.069Z,101577.26
2023-05-02T11:48:55.885Z,101583.11
2023-05-02T11:50:01.131Z,101594.45
2023-05-02T11:51:05.798Z,101594.86
2023-05-02T11:52:08.705Z,101604.26
2023-05-02T11:53:13.759Z,101605.05
2023-05-02T11:54:20.021Z,101610.30
2023-05-02T11:55:23.212Z,101613.10
2023-05-02T11:56:27.034Z,101611.40
2023-05-02T11:57:33.601Z,101619.48
2023-05-02T11:58:36.451Z,101621.73
2023-05-02T11:59:53.465Z,101624.71
2023-05-02T12:00:57.550Z,101625.09
2023-05-02T12:02:00.615Z,101628.33
2023-05-02T12:03:04.328Z,101632.75
2023-05-02T12:04:08.692Z,101634.68
2023-05-02T12:05:13.397Z,101634.69
2023-05-02T12:06:20.730Z,101636.20
2023-05-02T12:07:45.055Z,101635.66
2023-05-02T12:08:49.647Z,101633.69
2023-05-02T12:09:54.533Z,101635.27
2023-05-02T12:10:57.397Z,101637.98
2023-05-02T12:12:02.221Z,101638.23
2023-05-02T12:13:06.306Z,101641.77
2023-05-02T12:14:09.386Z,101645.59
2023-05-02T12:15:12.828Z,101638.75
2023-05-02T12:16:17.138Z,101645.95
2023-05-02T12:17:22.329Z,101643.63
2023-05-02T12:18:27.254Z,101648.94
2023-05-02T12:19:30.430Z,101651.64
2023-05-02T12:20:33.518Z,101649.36
2023-05-02T12:21:36.643Z,101649.73
2023-05-02T12:22:40.114Z,101657.06
2023-05-02T12:23:43.829Z,101655.55
2023-05-02T12:24:46.988Z,101659.00
2023-05-02T12:25:49.878Z,101659.02
2023-05-02T12:27:12.557Z,101658.09
2023-05-02T12:28:18.692Z,101663.25
2023-05-02T12:29:21.791Z,101666.61
2023-05-02T12:30:28.984Z,101679.57
2023-05-02T12:31:32.479Z,101685.98
2023-05-02T12:32:36.931Z,101687.42
2023-05-02T12:33:43.971Z,101692.67
2023-05-02T12:34:46.879Z,101687.00
2023-05-02T12:35:51.062Z,101701.17
2023-05-02T12:36:54.217Z,101704.68
2023-05-02T12:38:15.581Z,101710.01
2023-05-02T12:39:18.732Z,101704.01
2023-05-02T12:40:21.916Z,101711.98
2023-05-02T12:41:39.633Z,101709.98
2023-05-02T12:42:42.739Z,101712.54
2023-05-02T12:43:51.269Z,101717.40
2023-05-02T12:44:54.775Z,101711.91
2023-05-02T12:46:11.164Z,101708.00
2023-05-02T12:47:16.544Z,101717.80
2023-05-02T12:48:27.182Z,101717.39
2023-05-02T12:49:30.393Z,101718.00
2023-05-02T12:50:37.813Z,101721.34
2023-05-02T12:51:41.365Z,101715.85
2023-05-02T12:52:57.477Z,101716.82
2023-05-02T12:54:00.459Z,101720.72
2023-05-02T12:55:19.517Z,101719.59
2023-05-02T12:56:22.973Z,101720.34
2023-05-02T12:57:26.590Z,101719.83
2023-05-02T12:58:29.533Z,101722.02
2023-05-02T12:59:32.925Z,101726.27
2023-05-02T13:00:40.842Z,101723.33
2023-05-02T13:01:43.903Z,101727.93
2023-05-02T13:02:46.936Z,101735.05
2023-05-02T13:03:51.213Z,101733.14
2023-05-02T13:04:54.278Z,101739.88
2023-05-02T13:05:57.226Z,101745.17
2023-05-02T13:07:01.394Z,101753.09
2023-05-02T13:08:04.408Z,101758.02
2023-05-02T13:09:07.217Z,101758.52
2023-05-02T13:10:11.416Z,101761.75
2023-05-02T13:11:14.846Z,101763.03
2023-05-02T13:12:18.456Z,101762.66
2023-05-02T13:13:21.978Z,101769.70
2023-05-02T13:14:25.745Z,101763.64
2023-05-02T13:15:28.850Z,101766.21